Milwaukee, Wisconsin
Traffic Map
Current Weather Conditions
Milwaukee, Wisconsin
Broken Clouds
Broken Clouds
24°
Feels Like: 24°
Wind Chill: 24° Ceiling: 16000
Heat Index: 24° Visibility: 10mi
Dew Point: 14° Wind: 10mph
Humidity: 52% Direction: 290° (WNW)
Pressure: 29.89in Gusts: 0mph
Raw Report DataKMKE 021652Z 29009KT 10SM FEW060 SCT120 BKN160 BKN190 24/14 A2989 RMK AO2 SLP119 T02440139
Traffic Incident Summary
Active as of:
Severity:
Category:
InformationThere was an issue retrieving the traffic information for this location. Please try a different location or try again shortly.
Advertisements
Track Severe Weather on mobile